Big Spring, Illinois
Current Conditions -  °F | °C
As of 1:53 PM on Friday 31 Oct 2014 (Local Time) from KMTO Reporting Station
Overcast Overcast  
Wind Chill: 30°   Ceiling: 4400
Heat Index: 41°   Visibility: 10mi
Dew Point: 26°   Wind: 28mph
Humidity: 55%   Direction: 340°NNW
Pressure: 30.15"   Gusts: 40mph
Location:  39.3144°N, 88.4504°W
Report Text: KMTO 311853Z AUTO 34024G35KT 10SM OVC044 05/M03 A3015 RMK AO2 PK WND 34035/1849 SLP214 T00501033
Loading
Personal Weather Stations






























Interactive Weather Map
Tropical Storm Tracking
New forecast layout! Learn more

10-Day Weather Forecast

Advertisements
Track Severe Weather on mobile